createdAt,value
2019-03-27T00:01:10.617Z,8.50
2019-03-27T00:03:44.487Z,8.46
2019-03-27T00:06:15.599Z,8.41
2019-03-27T00:08:45.860Z,8.29
2019-03-27T00:11:17.123Z,8.29
2019-03-27T00:13:51.409Z,8.35
2019-03-27T00:16:24.647Z,8.38
2019-03-27T00:18:57.209Z,8.40
2019-03-27T00:21:29.064Z,8.31
2019-03-27T00:24:02.082Z,8.31
2019-03-27T00:26:33.861Z,8.41
2019-03-27T00:29:05.751Z,8.36
2019-03-27T00:31:38.853Z,8.36
2019-03-27T00:34:12.054Z,8.31
2019-03-27T00:36:43.923Z,8.23
2019-03-27T00:39:15.550Z,8.14
2019-03-27T00:41:45.680Z,8.14
2019-03-27T00:44:15.737Z,8.15
2019-03-27T00:46:48.290Z,8.13
2019-03-27T00:49:20.640Z,8.11
2019-03-27T00:51:53.228Z,8.14
2019-03-27T00:54:29.483Z,8.11
2019-03-27T00:56:56.642Z,8.07
2019-03-27T00:59:28.972Z,8.10
2019-03-27T01:02:01.249Z,8.10
2019-03-27T01:04:34.814Z,8.10
2019-03-27T01:07:05.055Z,8.04
2019-03-27T01:09:44.797Z,8.04
2019-03-27T01:12:14.884Z,8.10
2019-03-27T01:14:45.123Z,8.16
2019-03-27T01:17:19.673Z,8.15
2019-03-27T01:19:50.020Z,8.15
2019-03-27T01:22:20.154Z,8.08
2019-03-27T01:24:57.314Z,8.15
2019-03-27T01:27:31.417Z,8.19
2019-03-27T01:30:01.706Z,8.17
2019-03-27T01:32:35.586Z,8.17
2019-03-27T01:35:06.173Z,8.16
2019-03-27T01:37:37.549Z,8.13
2019-03-27T01:40:10.362Z,7.99
2019-03-27T01:42:40.235Z,7.99
2019-03-27T01:45:11.303Z,8.02
2019-03-27T01:47:43.513Z,8.09
2019-03-27T01:50:13.586Z,7.97
2019-03-27T01:52:45.814Z,7.98
2019-03-27T01:55:17.571Z,7.98
2019-03-27T01:57:47.795Z,8.02
2019-03-27T02:00:18.254Z,8.16
2019-03-27T02:02:52.765Z,8.08
2019-03-27T02:05:24.255Z,8.06
2019-03-27T02:07:54.228Z,8.05
2019-03-27T02:10:27.934Z,7.95
2019-03-27T02:12:59.466Z,7.96
2019-03-27T02:15:29.778Z,7.89
2019-03-27T02:17:59.890Z,7.89
2019-03-27T02:20:30.015Z,7.93
2019-03-27T02:23:00.218Z,7.94
2019-03-27T02:25:30.497Z,7.87
2019-03-27T02:28:00.696Z,7.84
2019-03-27T02:30:33.218Z,7.82
2019-03-27T02:33:03.240Z,7.79
2019-03-27T02:35:35.715Z,7.76
2019-03-27T02:38:05.845Z,7.77
2019-03-27T02:40:36.230Z,7.76
2019-03-27T02:43:06.363Z,7.71
2019-03-27T02:45:36.624Z,7.69
2019-03-27T02:48:06.720Z,7.74
2019-03-27T02:50:40.160Z,7.67
2019-03-27T02:53:10.289Z,7.64
2019-03-27T02:55:41.254Z,7.60
2019-03-27T02:58:15.241Z,7.64
2019-03-27T03:00:45.416Z,7.69
2019-03-27T03:03:15.625Z,7.59
2019-03-27T03:05:45.786Z,7.55
2019-03-27T03:08:18.021Z,7.57
2019-03-27T03:10:48.298Z,7.60
2019-03-27T03:13:18.635Z,7.64
2019-03-27T03:15:49.695Z,7.63
2019-03-27T03:18:19.750Z,7.64
2019-03-27T03:20:52.401Z,7.60
2019-03-27T03:23:22.722Z,7.62
2019-03-27T03:25:52.777Z,7.63
2019-03-27T03:28:22.754Z,7.69
2019-03-27T03:30:52.958Z,7.72
2019-03-27T03:33:25.985Z,7.64
2019-03-27T03:35:57.642Z,7.58
2019-03-27T03:38:30.155Z,7.49
2019-03-27T03:41:01.565Z,7.34
2019-03-27T03:43:31.757Z,7.27
2019-03-27T03:46:02.190Z,7.30
2019-03-27T03:48:34.262Z,7.29
2019-03-27T03:51:05.718Z,7.24
2019-03-27T03:53:39.034Z,7.16
2019-03-27T03:56:12.224Z,7.06
2019-03-27T03:58:43.306Z,7.06
2019-03-27T04:01:14.802Z,6.91
2019-03-27T04:03:49.570Z,6.90
2019-03-27T04:06:19.873Z,6.84
2019-03-27T04:08:53.140Z,6.89
2019-03-27T04:11:23.353Z,6.89
2019-03-27T04:13:56.113Z,6.94
2019-03-27T04:16:26.347Z,6.81
2019-03-27T04:18:58.134Z,6.74
2019-03-27T04:21:28.364Z,6.78
2019-03-27T04:23:58.461Z,6.81
2019-03-27T04:26:28.484Z,6.86
2019-03-27T04:28:59.811Z,6.86
2019-03-27T04:31:29.995Z,6.91
2019-03-27T04:34:00.043Z,6.90
2019-03-27T04:36:31.547Z,6.82
2019-03-27T04:39:01.689Z,6.95
2019-03-27T04:41:35.194Z,7.08
2019-03-27T04:44:08.793Z,7.05
2019-03-27T04:46:44.948Z,7.06
2019-03-27T04:49:11.739Z,7.16
2019-03-27T04:51:45.723Z,7.22
2019-03-27T04:54:15.772Z,7.22
2019-03-27T04:56:45.775Z,7.20
2019-03-27T04:59:20.911Z,7.02
2019-03-27T05:01:52.010Z,7.24
2019-03-27T05:04:24.498Z,7.28
2019-03-27T05:06:54.523Z,7.22
2019-03-27T05:09:24.714Z,7.28
2019-03-27T05:11:56.693Z,7.27
2019-03-27T05:14:26.907Z,7.28
2019-03-27T05:16:58.429Z,7.27
2019-03-27T05:19:28.627Z,7.35
2019-03-27T05:21:58.887Z,7.37
2019-03-27T05:24:30.142Z,7.39
2019-03-27T05:27:03.725Z,7.43
2019-03-27T05:29:33.882Z,7.34
2019-03-27T05:32:04.110Z,7.45
2019-03-27T05:34:34.256Z,7.39
2019-03-27T05:37:07.347Z,7.55
2019-03-27T05:39:37.547Z,7.72
2019-03-27T05:42:07.718Z,7.77
2019-03-27T05:44:39.193Z,7.78
2019-03-27T05:47:10.658Z,7.95
2019-03-27T05:49:40.588Z,7.99
2019-03-27T05:52:10.519Z,8.14
2019-03-27T05:54:40.715Z,8.52
2019-03-27T05:57:13.267Z,8.78
2019-03-27T05:59:46.698Z,9.10
2019-03-27T06:02:17.931Z,9.12
2019-03-27T06:04:49.612Z,9.21
2019-03-27T06:07:19.847Z,9.10
2019-03-27T06:09:53.925Z,9.34
2019-03-27T06:12:26.700Z,9.65
2019-03-27T06:14:56.843Z,10.06
2019-03-27T06:17:26.931Z,10.35
2019-03-27T06:19:58.863Z,10.45
2019-03-27T06:22:30.783Z,10.55
2019-03-27T06:25:04.236Z,10.69
2019-03-27T06:27:34.137Z,10.69
2019-03-27T06:30:06.595Z,10.69
2019-03-27T06:32:38.681Z,11.07
2019-03-27T06:35:09.409Z,11.52
2019-03-27T06:37:39.663Z,11.94
2019-03-27T06:40:10.136Z,12.55
2019-03-27T06:42:40.272Z,13.83
2019-03-27T06:45:10.882Z,14.67
2019-03-27T06:47:41.050Z,16.09
2019-03-27T06:50:16.023Z,17.18
2019-03-27T06:52:47.381Z,17.88
2019-03-27T06:55:20.912Z,19.42
2019-03-27T06:57:52.048Z,21.33
2019-03-27T07:00:30.815Z,23.39
2019-03-27T07:03:03.474Z,24.25
2019-03-27T07:05:42.596Z,22.35
2019-03-27T07:08:12.534Z,20.60
2019-03-27T07:10:42.787Z,19.33
2019-03-27T07:13:12.887Z,18.62
2019-03-27T07:15:44.709Z,18.06
2019-03-27T07:18:16.806Z,17.62
2019-03-27T07:20:46.873Z,17.33
2019-03-27T07:23:18.689Z,18.21
2019-03-27T07:25:52.996Z,20.15
2019-03-27T07:28:23.109Z,20.33
2019-03-27T07:30:54.351Z,20.75
2019-03-27T07:33:24.571Z,21.46
2019-03-27T07:35:57.467Z,22.10
2019-03-27T07:38:28.582Z,20.94
2019-03-27T07:41:00.017Z,20.34
2019-03-27T07:43:30.068Z,20.08
2019-03-27T07:46:00.153Z,19.79
2019-03-27T07:48:30.392Z,19.16
2019-03-27T07:51:02.138Z,19.18
2019-03-27T07:53:35.492Z,18.52
2019-03-27T07:56:09.774Z,17.12
2019-03-27T07:58:39.979Z,16.94
2019-03-27T08:01:10.180Z,16.82
2019-03-27T08:03:40.369Z,16.08
2019-03-27T08:06:10.457Z,15.74
2019-03-27T08:08:45.307Z,15.44
2019-03-27T08:11:18.713Z,15.39
2019-03-27T08:13:56.589Z,15.44
2019-03-27T08:16:28.825Z,15.33
2019-03-27T08:19:07.854Z,15.25
2019-03-27T08:21:34.959Z,15.18
2019-03-27T08:24:07.157Z,15.03
2019-03-27T08:26:42.653Z,15.14
2019-03-27T08:29:12.795Z,14.74
2019-03-27T08:31:47.570Z,14.90
2019-03-27T08:34:17.724Z,15.14
2019-03-27T08:36:50.191Z,14.31
2019-03-27T08:39:22.583Z,14.07
2019-03-27T08:41:52.838Z,13.95
2019-03-27T08:44:23.018Z,13.82
2019-03-27T08:46:55.444Z,14.25
2019-03-27T08:49:27.491Z,14.31
2019-03-27T08:51:59.608Z,14.77
2019-03-27T08:54:29.761Z,14.64
2019-03-27T08:57:00.002Z,15.10
2019-03-27T08:59:30.117Z,16.63
2019-03-27T09:02:00.313Z,19.02
2019-03-27T09:04:33.424Z,21.79
2019-03-27T09:07:05.969Z,23.72
2019-03-27T09:09:40.381Z,25.28
2019-03-27T09:12:10.634Z,25.94
2019-03-27T09:14:40.683Z,26.49
2019-03-27T09:17:13.122Z,26.36
2019-03-27T09:19:43.363Z,25.40
2019-03-27T09:22:19.476Z,24.30
2019-03-27T09:24:51.881Z,22.44
2019-03-27T09:30:15.166Z,21.79
2019-03-27T09:32:46.470Z,23.02
2019-03-27T09:35:16.881Z,26.01
2019-03-27T09:37:48.947Z,26.86
2019-03-27T09:40:21.466Z,27.46
2019-03-27T09:42:53.329Z,28.02
2019-03-27T09:45:27.383Z,29.53
2019-03-27T09:47:57.630Z,29.74
2019-03-27T09:50:30.059Z,29.47
2019-03-27T09:53:00.317Z,28.89
2019-03-27T09:55:30.540Z,29.94
2019-03-27T09:58:04.324Z,29.41
2019-03-27T10:00:57.128Z,28.96
2019-03-27T10:03:29.799Z,28.62
2019-03-27T10:06:01.490Z,28.33
2019-03-27T10:08:33.219Z,28.78
2019-03-27T10:11:06.511Z,30.11
2019-03-27T10:13:36.802Z,31.00
2019-03-27T10:16:07.201Z,31.27
2019-03-27T10:18:37.378Z,30.03
2019-03-27T10:21:09.966Z,29.25
2019-03-27T10:23:40.077Z,29.96
2019-03-27T10:26:12.161Z,31.14
2019-03-27T10:28:44.135Z,31.80
2019-03-27T10:31:16.455Z,30.59
2019-03-27T10:33:52.024Z,31.17
2019-03-27T10:36:22.036Z,31.08
2019-03-27T10:38:52.140Z,32.26
2019-03-27T10:41:26.509Z,31.35
2019-03-27T10:43:54.052Z,33.25
2019-03-27T10:46:24.243Z,33.77
2019-03-27T10:48:54.421Z,31.63
2019-03-27T10:51:24.809Z,33.73
2019-03-27T10:53:55.013Z,33.02
2019-03-27T10:56:25.167Z,33.98
2019-03-27T10:58:55.382Z,33.35
2019-03-27T11:01:25.415Z,34.58
2019-03-27T11:03:55.586Z,35.83
2019-03-27T11:06:25.749Z,35.47
2019-03-27T11:08:57.315Z,35.19
2019-03-27T11:11:27.429Z,35.60
2019-03-27T11:13:57.629Z,37.16
2019-03-27T11:16:27.983Z,37.62
2019-03-27T11:18:58.061Z,34.85
2019-03-27T11:21:28.199Z,35.44
2019-03-27T11:23:58.497Z,34.58
2019-03-27T11:26:30.843Z,34.76
2019-03-27T11:29:01.002Z,35.18
2019-03-27T11:31:32.491Z,33.16
2019-03-27T11:34:03.911Z,33.38
2019-03-27T11:36:35.303Z,29.83
2019-03-27T11:39:08.545Z,26.36
2019-03-27T11:41:38.769Z,25.43
2019-03-27T11:44:12.668Z,24.02
2019-03-27T11:46:44.193Z,22.80
2019-03-27T11:49:14.386Z,21.63
2019-03-27T11:51:44.582Z,20.65
2019-03-27T11:54:14.674Z,19.92
2019-03-27T11:56:44.749Z,19.40
2019-03-27T11:59:14.938Z,19.50
2019-03-27T12:01:47.319Z,19.10
2019-03-27T12:04:17.560Z,18.48
2019-03-27T12:06:49.680Z,18.21
2019-03-27T12:09:19.785Z,18.17
2019-03-27T12:11:51.411Z,18.17
2019-03-27T12:14:22.504Z,17.67
2019-03-27T12:16:54.176Z,17.52
2019-03-27T12:19:25.628Z,17.62
2019-03-27T12:21:59.767Z,17.49
2019-03-27T12:24:31.210Z,17.21
2019-03-27T12:27:01.342Z,16.86
2019-03-27T12:29:32.920Z,16.86
2019-03-27T12:32:06.379Z,16.45
2019-03-27T12:34:38.549Z,16.66
2019-03-27T12:37:08.665Z,16.71
2019-03-27T12:39:40.755Z,16.84
2019-03-27T12:42:10.742Z,16.82
2019-03-27T12:44:40.793Z,16.59
2019-03-27T12:47:11.029Z,16.38
2019-03-27T12:49:42.434Z,16.32
2019-03-27T12:52:12.821Z,16.22
2019-03-27T12:54:44.007Z,16.36
2019-03-27T12:57:14.013Z,16.25
2019-03-27T12:59:44.052Z,16.31
2019-03-27T13:02:14.378Z,16.28
2019-03-27T13:04:44.376Z,16.30
2019-03-27T13:07:16.207Z,16.37
2019-03-27T13:09:48.439Z,16.33
2019-03-27T13:12:18.627Z,16.21
2019-03-27T13:14:48.805Z,16.25
2019-03-27T13:17:23.451Z,15.96
2019-03-27T13:19:54.960Z,15.73
2019-03-27T13:22:24.998Z,15.59
2019-03-27T13:24:55.278Z,15.53
2019-03-27T13:27:25.502Z,15.61
2019-03-27T13:29:55.665Z,15.60
2019-03-27T13:32:25.733Z,15.61
2019-03-27T13:34:57.340Z,15.73
2019-03-27T13:37:28.850Z,15.81
2019-03-27T13:40:03.342Z,15.89
2019-03-27T13:42:36.416Z,15.93
2019-03-27T13:45:07.603Z,15.67
2019-03-27T13:47:39.670Z,15.60
2019-03-27T13:50:13.296Z,15.47
2019-03-27T13:52:46.426Z,15.45
2019-03-27T13:55:20.275Z,15.22
2019-03-27T13:57:52.076Z,15.30
2019-03-27T14:00:26.597Z,15.42
2019-03-27T14:02:58.254Z,15.51
2019-03-27T14:05:28.584Z,15.48
2019-03-27T14:08:01.015Z,15.55
2019-03-27T14:10:39.937Z,15.54
2019-03-27T14:13:10.151Z,15.64
2019-03-27T14:15:41.717Z,15.49
2019-03-27T14:18:14.784Z,15.47
2019-03-27T14:20:44.809Z,15.37
2019-03-27T14:23:16.421Z,15.32
2019-03-27T14:25:48.916Z,15.34
2019-03-27T14:28:20.318Z,15.41
2019-03-27T14:30:58.061Z,15.33
2019-03-27T14:33:31.815Z,15.50
2019-03-27T14:36:05.717Z,15.58
2019-03-27T14:38:35.966Z,15.60
2019-03-27T14:41:08.848Z,15.55
2019-03-27T14:43:40.049Z,15.42
2019-03-27T14:46:11.509Z,15.38
2019-03-27T14:48:43.239Z,15.36
2019-03-27T14:51:17.299Z,15.40
2019-03-27T14:53:51.102Z,15.22
2019-03-27T14:56:21.278Z,15.27
2019-03-27T14:58:51.348Z,15.26
2019-03-27T15:01:21.572Z,15.22
2019-03-27T15:03:51.659Z,15.26
2019-03-27T15:06:21.863Z,15.16
2019-03-27T15:08:52.472Z,15.14
2019-03-27T15:11:23.717Z,15.19
2019-03-27T15:13:53.960Z,15.19
2019-03-27T15:16:24.035Z,15.11
2019-03-27T15:18:54.020Z,15.00
2019-03-27T15:21:26.393Z,14.92
2019-03-27T15:24:04.173Z,14.86
2019-03-27T15:26:38.638Z,14.92
2019-03-27T15:29:12.538Z,14.89
2019-03-27T15:31:42.507Z,14.92
2019-03-27T15:34:12.631Z,14.97
2019-03-27T15:36:44.028Z,14.89
2019-03-27T15:39:14.219Z,14.78
2019-03-27T15:41:44.277Z,14.74
2019-03-27T15:44:14.408Z,14.72
2019-03-27T15:46:44.517Z,14.72
2019-03-27T15:49:14.574Z,14.70
2019-03-27T15:51:44.887Z,14.55
2019-03-27T15:54:14.975Z,14.45
2019-03-27T15:56:45.208Z,14.40
2019-03-27T15:59:18.505Z,14.27
2019-03-27T16:01:48.740Z,14.16
2019-03-27T16:04:20.405Z,14.12
2019-03-27T16:06:50.654Z,14.08
2019-03-27T16:09:22.162Z,13.98
2019-03-27T16:11:54.214Z,13.95
2019-03-27T16:14:25.512Z,13.88
2019-03-27T16:17:12.349Z,13.82
2019-03-27T16:19:30.094Z,13.63
2019-03-27T16:22:03.529Z,13.52
2019-03-27T16:24:39.167Z,13.42
2019-03-27T16:27:14.752Z,13.42
2019-03-27T16:29:44.956Z,13.27
2019-03-27T16:32:15.017Z,13.23
2019-03-27T16:34:45.053Z,13.18
2019-03-27T16:37:17.175Z,13.05
2019-03-27T16:39:47.405Z,12.98
2019-03-27T16:42:18.813Z,12.96
2019-03-27T16:44:50.663Z,12.87
2019-03-27T16:47:24.553Z,12.81
2019-03-27T16:49:54.610Z,12.71
2019-03-27T16:52:24.792Z,12.60
2019-03-27T16:54:55.100Z,12.63
2019-03-27T16:57:26.390Z,12.59
2019-03-27T16:59:56.534Z,12.54
2019-03-27T17:02:26.574Z,12.42
2019-03-27T17:04:56.531Z,12.39
2019-03-27T17:07:31.238Z,12.34
2019-03-27T17:10:01.348Z,12.25
2019-03-27T17:12:33.721Z,12.21
2019-03-27T17:15:04.357Z,12.18
2019-03-27T17:17:36.181Z,12.12
2019-03-27T17:20:07.478Z,12.05
2019-03-27T17:22:37.600Z,12.05
2019-03-27T17:25:07.750Z,12.05
2019-03-27T17:27:37.768Z,12.06
2019-03-27T17:30:08.572Z,12.00
2019-03-27T17:32:38.699Z,12.01
2019-03-27T17:35:10.435Z,11.97
2019-03-27T17:37:40.653Z,11.93
2019-03-27T17:40:11.235Z,11.88
2019-03-27T17:42:41.594Z,11.87
2019-03-27T17:45:12.047Z,11.75
2019-03-27T17:47:42.322Z,11.69
2019-03-27T17:50:17.028Z,11.68
2019-03-27T17:52:47.265Z,11.69
2019-03-27T17:55:18.699Z,11.65
2019-03-27T17:57:48.940Z,11.60
2019-03-27T18:00:26.434Z,11.60
2019-03-27T18:02:56.534Z,11.57
2019-03-27T18:05:27.153Z,11.55
2019-03-27T18:07:59.655Z,11.54
2019-03-27T18:10:29.990Z,11.50
2019-03-27T18:13:00.222Z,11.49
2019-03-27T18:15:32.858Z,11.43
2019-03-27T18:18:03.119Z,11.39
2019-03-27T18:20:33.295Z,11.38
2019-03-27T18:23:03.622Z,11.38
2019-03-27T18:25:33.856Z,11.32
2019-03-27T18:28:06.799Z,11.28
2019-03-27T18:30:37.018Z,11.23
2019-03-27T18:33:07.351Z,11.19
2019-03-27T18:35:37.385Z,11.10
2019-03-27T18:38:08.446Z,10.99
2019-03-27T18:40:41.099Z,10.99
2019-03-27T18:43:11.240Z,11.00
2019-03-27T18:45:41.510Z,10.96
2019-03-27T18:48:11.757Z,11.01
2019-03-27T18:50:42.853Z,11.02
2019-03-27T18:53:13.151Z,10.97
2019-03-27T18:55:52.027Z,10.87
2019-03-27T18:58:22.074Z,10.85
2019-03-27T19:00:52.230Z,10.85
2019-03-27T19:03:22.504Z,10.77
2019-03-27T19:05:52.735Z,10.62
2019-03-27T19:08:22.936Z,10.63
2019-03-27T19:10:53.254Z,10.51
2019-03-27T19:13:23.374Z,10.54
2019-03-27T19:15:53.975Z,10.56
2019-03-27T19:18:24.273Z,10.50
2019-03-27T19:20:54.428Z,10.38
2019-03-27T19:23:24.510Z,10.43
2019-03-27T19:25:54.793Z,10.43
2019-03-27T19:28:27.917Z,10.42
2019-03-27T19:30:58.084Z,10.42
2019-03-27T19:33:28.084Z,10.38
2019-03-27T19:35:58.254Z,10.27
2019-03-27T19:38:28.605Z,10.08
2019-03-27T19:41:00.200Z,10.11
2019-03-27T19:43:30.309Z,10.15
2019-03-27T19:46:05.734Z,10.15
2019-03-27T19:48:37.229Z,10.15
2019-03-27T19:51:07.674Z,10.02
2019-03-27T19:53:37.860Z,9.95
2019-03-27T19:56:08.063Z,9.87
2019-03-27T19:58:38.253Z,9.76
2019-03-27T20:01:09.090Z,9.66
2019-03-27T20:03:40.532Z,9.81
2019-03-27T20:06:12.364Z,9.81
2019-03-27T20:08:45.131Z,9.84
2019-03-27T20:11:16.948Z,9.70
2019-03-27T20:13:48.638Z,9.65
2019-03-27T20:16:21.763Z,9.67
2019-03-27T20:18:51.903Z,9.64
2019-03-27T20:21:24.328Z,9.61
2019-03-27T20:24:00.165Z,9.59
2019-03-27T20:26:30.431Z,9.56
2019-03-27T20:29:00.746Z,9.59
2019-03-27T20:31:30.941Z,9.51
2019-03-27T20:34:04.370Z,9.44
2019-03-27T20:36:36.303Z,9.36
2019-03-27T20:39:10.417Z,9.38
2019-03-27T20:41:40.545Z,9.32
2019-03-27T20:44:10.688Z,9.10
2019-03-27T20:46:40.761Z,8.89
2019-03-27T20:49:10.871Z,8.83
2019-03-27T20:51:41.427Z,8.63
2019-03-27T20:54:11.599Z,8.47
2019-03-27T20:56:41.879Z,8.20
2019-03-27T20:59:12.206Z,7.95
2019-03-27T21:01:42.379Z,8.02
2019-03-27T21:04:15.945Z,8.18
2019-03-27T21:06:46.395Z,8.14
2019-03-27T21:09:16.489Z,8.07
2019-03-27T21:11:46.705Z,7.90
2019-03-27T21:14:16.954Z,7.69
2019-03-27T21:16:47.246Z,7.51
2019-03-27T21:19:17.402Z,7.44
2019-03-27T21:21:49.592Z,7.24
2019-03-27T21:24:19.885Z,7.18
2019-03-27T21:26:51.810Z,7.15
2019-03-27T21:29:24.382Z,6.98
2019-03-27T21:31:55.971Z,7.00
2019-03-27T21:34:27.595Z,6.99
2019-03-27T21:37:01.554Z,6.89
2019-03-27T21:39:35.721Z,6.71
2019-03-27T21:42:05.874Z,6.58
2019-03-27T21:44:36.102Z,6.49
2019-03-27T21:47:09.193Z,6.51
2019-03-27T21:49:39.306Z,6.48
2019-03-27T21:52:09.581Z,6.37
2019-03-27T21:54:39.839Z,6.37
2019-03-27T21:57:17.328Z,6.29
2019-03-27T21:59:48.988Z,6.22
2019-03-27T22:02:22.042Z,6.27
2019-03-27T22:04:52.089Z,6.10
2019-03-27T22:07:22.189Z,6.13
2019-03-27T22:09:53.942Z,6.16
2019-03-27T22:12:24.144Z,6.20
2019-03-27T22:14:54.319Z,6.28
2019-03-27T22:17:24.688Z,6.34
2019-03-27T22:19:55.101Z,6.52
2019-03-27T22:22:28.754Z,6.52
2019-03-27T22:25:00.364Z,6.65
2019-03-27T22:27:30.732Z,6.78
2019-03-27T22:30:00.984Z,6.65
2019-03-27T22:32:33.062Z,6.70
2019-03-27T22:35:03.419Z,6.79
2019-03-27T22:37:37.195Z,6.85
2019-03-27T22:40:07.554Z,6.91
2019-03-27T22:42:39.854Z,6.98
2019-03-27T22:45:10.089Z,6.94
2019-03-27T22:47:40.438Z,6.92
2019-03-27T22:50:10.720Z,6.91
2019-03-27T22:52:42.261Z,6.94
2019-03-27T22:55:14.395Z,6.91
2019-03-27T22:57:46.386Z,6.86
2019-03-27T23:00:19.781Z,6.82
2019-03-27T23:02:51.432Z,6.80
2019-03-27T23:05:21.723Z,6.81
2019-03-27T23:07:51.935Z,6.81
2019-03-27T23:10:23.214Z,6.84
2019-03-27T23:12:53.456Z,6.57
2019-03-27T23:15:23.801Z,6.31
2019-03-27T23:17:54.004Z,6.21
2019-03-27T23:20:25.304Z,6.32
2019-03-27T23:22:55.560Z,6.21
2019-03-27T23:25:25.778Z,6.08
2019-03-27T23:27:58.018Z,6.12
2019-03-27T23:30:27.846Z,6.24
2019-03-27T23:32:57.990Z,6.30
2019-03-27T23:35:28.159Z,6.34
2019-03-27T23:37:58.307Z,6.35
2019-03-27T23:40:32.951Z,6.34
2019-03-27T23:43:03.213Z,6.30
2019-03-27T23:45:33.411Z,6.26
2019-03-27T23:48:05.768Z,6.23
2019-03-27T23:50:37.699Z,6.30
2019-03-27T23:53:08.021Z,6.34
2019-03-27T23:55:41.991Z,6.40
2019-03-27T23:58:14.593Z,6.35
